Time;durP1;ratioP1;P1;durP2;ratioP2;P2;SDS_P1;SDS_P2;PMS_P1;PMS_P2;Temp;Humidity;BMP_temperature;BMP_pressure;BME280_temperature;BME280_humidity;BME280_pressure;Samples;Min_cycle;Max_cycle;Signal;HPM_P1;HPM_P2
2022/01/08 00:01:00;;;;;;;3.22;1.67;;;;;;;-0.69;88.17;96049.28;2081354;28;20194;-57
2022/01/08 00:02:03;;;;;;;2.45;1.02;;;;;;;-0.60;88.28;96046.41;2080788;28;20214;-58
2022/01/08 00:03:04;;;;;;;6.28;1.83;;;;;;;-0.60;87.94;96043.84;2080852;28;20230;-57
2022/01/08 00:04:06;;;;;;;3.72;1.40;;;;;;;-0.56;87.93;96042.00;2079728;28;20201;-58
2022/01/08 00:05:10;;;;;;;2.33;1.25;;;;;;;-0.62;87.86;96027.63;2081410;28;20448;-57
2022/01/08 00:06:12;;;;;;;3.15;1.48;;;;;;;-0.55;87.97;96037.69;2081233;28;20568;-58
2022/01/08 00:07:14;;;;;;;2.05;1.10;;;;;;;-0.56;87.90;96025.75;2081395;28;20205;-57
2022/01/08 00:08:15;;;;;;;4.88;2.13;;;;;;;-0.58;87.74;96024.97;2081003;28;20199;-58
2022/01/08 00:09:17;;;;;;;2.67;1.52;;;;;;;-0.58;87.83;96024.97;2081399;28;20198;-58
2022/01/08 00:10:18;;;;;;;3.10;1.65;;;;;;;-0.62;87.89;96017.34;2081429;28;20751;-58
2022/01/08 00:11:24;;;;;;;3.45;1.70;;;;;;;-0.63;88.03;96012.22;2080997;28;20198;-58
2022/01/08 00:12:26;;;;;;;6.10;1.20;;;;;;;-0.75;88.36;95998.06;2080750;28;20199;-58
2022/01/08 00:13:27;;;;;;;8.57;1.75;;;;;;;-0.67;88.23;96001.19;2080774;28;20227;-58
2022/01/08 00:14:29;;;;;;;2.53;1.00;;;;;;;-0.67;88.34;95995.22;2080601;28;20214;-58
2022/01/08 00:15:32;;;;;;;3.58;1.48;;;;;;;-0.59;88.03;95995.81;2080146;28;20534;-58
2022/01/08 00:16:34;;;;;;;2.08;1.13;;;;;;;-0.75;88.64;95984.38;2081487;28;20534;-58
2022/01/08 00:17:36;;;;;;;2.35;1.50;;;;;;;-0.67;88.20;95975.47;2081496;28;20221;-58
2022/01/08 00:18:37;;;;;;;2.13;0.93;;;;;;;-0.68;87.93;95966.09;2080650;28;20217;-58
2022/01/08 00:19:39;;;;;;;3.78;1.58;;;;;;;-0.57;87.79;95983.72;2081114;28;20221;-58
2022/01/08 00:20:42;;;;;;;1.98;1.30;;;;;;;-0.75;87.64;95962.06;2081311;28;20203;-57
2022/01/08 00:21:43;;;;;;;2.40;1.33;;;;;;;-0.60;87.68;95989.00;2081295;28;20549;-57
2022/01/08 00:22:45;;;;;;;1.90;1.00;;;;;;;-0.62;87.66;95978.75;2080331;28;20198;-58
2022/01/08 00:23:46;;;;;;;2.35;1.45;;;;;;;-0.60;87.77;95976.97;2079930;28;20222;-58
2022/01/08 00:24:52;;;;;;;4.40;1.50;;;;;;;-0.54;87.72;95977.66;2081117;28;20195;-58
2022/01/08 00:25:53;;;;;;;3.42;1.20;;;;;;;-0.52;87.59;95981.00;2079535;28;20198;-58
2022/01/08 00:26:55;;;;;;;1.90;1.33;;;;;;;-0.57;87.66;95980.31;2081098;28;20200;-58
2022/01/08 00:27:56;;;;;;;2.70;1.50;;;;;;;-0.57;87.59;95988.03;2080694;28;20207;-58
2022/01/08 00:28:59;;;;;;;2.65;1.42;;;;;;;-0.51;87.70;95987.81;2081054;28;20243;-58
2022/01/08 00:30:00;;;;;;;2.10;1.20;;;;;;;-0.55;87.63;95983.69;2081331;28;20205;-58
2022/01/08 00:31:03;;;;;;;1.85;1.02;;;;;;;-0.53;87.85;95979.31;2081146;28;20204;-58
2022/01/08 00:32:05;;;;;;;2.10;1.20;;;;;;;-0.51;87.75;95982.69;2081093;28;20206;-58
2022/01/08 00:33:07;;;;;;;1.77;1.10;;;;;;;-0.63;87.44;95956.50;2080786;28;20213;-57
2022/01/08 00:34:08;;;;;;;1.95;1.20;;;;;;;-0.44;87.40;96000.41;2081263;28;20203;-60
2022/01/08 00:35:10;;;;;;;1.70;1.10;;;;;;;-0.45;87.69;95979.88;2080703;28;20195;-60
2022/01/08 00:36:12;;;;;;;1.92;1.20;;;;;;;-0.45;87.62;95977.31;2081008;28;20211;-60
2022/01/08 00:37:13;;;;;;;3.78;1.60;;;;;;;-0.51;87.47;95972.38;2079592;28;20203;-60
2022/01/08 00:38:15;;;;;;;4.38;1.20;;;;;;;-0.46;87.83;95975.66;2080794;28;20198;-58
2022/01/08 00:39:16;;;;;;;2.88;1.25;;;;;;;-0.41;87.86;95979.75;2080885;28;20200;-58
2022/01/08 00:40:18;;;;;;;2.15;1.20;;;;;;;-0.48;87.92;95967.16;2081153;28;20618;-58
2022/01/08 00:41:19;;;;;;;1.42;1.00;;;;;;;-0.44;87.67;95982.41;2081095;28;20210;-57
2022/01/08 00:42:21;;;;;;;1.90;1.10;;;;;;;-0.46;87.73;95970.50;2080748;28;20212;-58
2022/01/08 00:43:22;;;;;;;3.47;1.40;;;;;;;-0.43;87.84;95971.25;2080714;28;20223;-58
2022/01/08 00:44:24;;;;;;;1.55;1.25;;;;;;;-0.45;87.86;95977.31;2080838;28;20528;-58
2022/01/08 00:45:25;;;;;;;1.65;1.35;;;;;;;-0.39;87.47;95966.84;2081137;28;20211;-58
2022/01/08 00:46:28;;;;;;;2.45;1.35;;;;;;;-0.38;87.46;95968.50;2080885;28;20211;-58
2022/01/08 00:47:29;;;;;;;1.52;1.10;;;;;;;-0.40;87.37;95960.00;2080843;28;20205;-58
2022/01/08 00:48:31;;;;;;;4.50;1.67;;;;;;;-0.40;87.20;95945.38;2080205;28;20224;-58
2022/01/08 00:49:33;;;;;;;8.70;2.03;;;;;;;-0.27;87.14;95958.66;2080997;28;20200;-58
2022/01/08 00:50:34;;;;;;;4.93;1.90;;;;;;;-0.43;87.29;95950.66;2081258;28;20204;-57
2022/01/08 00:51:36;;;;;;;3.35;1.60;;;;;;;-0.33;87.44;95955.44;2081213;28;20196;-58
2022/01/08 00:52:38;;;;;;;1.77;1.40;;;;;;;-0.37;87.52;95953.88;2080939;28;20735;-58
2022/01/08 00:53:40;;;;;;;1.92;1.40;;;;;;;-0.36;87.74;95956.41;2079410;28;20277;-57
2022/01/08 00:54:42;;;;;;;1.92;1.45;;;;;;;-0.36;87.69;95942.72;2081217;28;20200;-57
2022/01/08 00:55:44;;;;;;;1.75;1.42;;;;;;;-0.41;87.83;95946.28;2080211;28;20187;-58
2022/01/08 00:56:45;;;;;;;3.65;1.70;;;;;;;-0.34;87.73;95934.03;2080915;28;20289;-57
2022/01/08 00:57:47;;;;;;;6.80;2.00;;;;;;;-0.29;87.77;95932.16;2080695;28;20196;-58
2022/01/08 00:58:48;;;;;;;3.38;0.90;;;;;;;-0.22;87.60;95941.34;2080488;28;20223;-58
2022/01/08 00:59:50;;;;;;;3.53;2.20;;;;;;;-0.35;87.50;95914.38;2080894;28;20995;-57
2022/01/08 01:00:51;;;;;;;2.63;1.55;;;;;;;-0.29;87.64;95924.44;2080601;28;20199;-58
2022/01/08 01:01:53;;;;;;;4.47;1.45;;;;;;;-0.29;87.80;95921.84;2080106;28;20215;-58
2022/01/08 01:02:54;;;;;;;1.70;1.23;;;;;;;-0.30;88.18;95919.31;2080787;28;20740;-58
2022/01/08 01:03:56;;;;;;;1.75;1.10;;;;;;;-0.31;88.50;95920.25;2079254;28;20311;-58
2022/01/08 01:04:58;;;;;;;1.83;1.50;;;;;;;-0.28;88.30;95912.38;2080729;28;20195;-58
2022/01/08 01:05:59;;;;;;;4.03;1.60;;;;;;;-0.32;88.15;95911.66;2080448;28;20236;-57
2022/01/08 01:07:01;;;;;;;4.78;1.50;;;;;;;-0.43;88.64;95900.94;2080849;28;20239;-57
2022/01/08 01:08:03;;;;;;;5.38;1.90;;;;;;;-0.39;88.66;95917.94;2079753;28;20204;-58
2022/01/08 01:09:04;;;;;;;4.03;1.80;;;;;;;-0.32;88.79;95911.66;2080457;28;20306;-58
2022/01/08 01:10:08;;;;;;;2.45;1.55;;;;;;;-0.36;88.58;95902.38;2080853;28;20206;-58
2022/01/08 01:11:09;;;;;;;1.35;1.20;;;;;;;-0.31;88.43;95908.22;2080487;28;20217;-58
2022/01/08 01:12:11;;;;;;;2.33;1.60;;;;;;;-0.41;88.58;95901.72;2079806;28;20575;-58
2022/01/08 01:13:33;;;;;;;2.80;1.75;;;;;;;-0.38;88.63;95914.47;2080290;28;20231;-58
2022/01/08 01:14:34;;;;;;;1.90;1.30;;;;;;;-0.34;88.49;95895.44;2080785;28;20298;-59
2022/01/08 01:15:36;;;;;;;3.92;1.63;;;;;;;-0.35;88.41;95906.63;2080935;28;20759;-58
2022/01/08 01:16:38;;;;;;;3.75;1.60;;;;;;;-0.35;88.61;95906.63;2080852;28;20193;-58
2022/01/08 01:17:41;;;;;;;2.10;1.50;;;;;;;-0.34;88.48;95912.63;2080748;28;20567;-58
2022/01/08 01:18:42;;;;;;;5.05;1.40;;;;;;;-0.35;88.90;95911.78;2080276;28;20736;-58
2022/01/08 01:19:44;;;;;;;2.85;1.45;;;;;;;-0.33;88.45;95907.41;2080819;28;20211;-58
2022/01/08 01:20:46;;;;;;;5.85;1.50;;;;;;;-0.32;88.44;95892.81;2080372;28;20207;-58
2022/01/08 01:21:48;;;;;;;3.33;2.03;;;;;;;-0.37;89.04;95897.28;2080779;28;20204;-58
2022/01/08 01:23:53;;;;;;;2.22;1.63;;;;;;;-0.38;89.18;95888.72;2079924;28;20229;-58
2022/01/08 01:25:02;;;;;;;3.08;1.83;;;;;;;-0.34;89.01;95882.56;2080666;28;20600;-58
2022/01/08 01:26:07;;;;;;;2.17;1.40;;;;;;;-0.29;89.04;95892.72;2080278;28;20211;-58
2022/01/08 01:27:52;;;;;;;2.30;1.67;;;;;;;-0.32;89.23;95880.78;2079312;28;20207;-58
2022/01/08 01:28:53;;;;;;;4.43;1.63;;;;;;;-0.30;nan;95866.13;2080270;28;20691;-58
2022/01/08 01:30:04;;;;;;;4.55;1.83;;;;;;;-0.39;89.38;95843.31;2080560;28;20237;-58
2022/01/08 01:43:06;;;;;;;4.53;1.58;;;;;;;-0.28;90.05;95830.88;2080801;28;20681;-58
2022/01/08 01:47:51;;;;;;;4.90;2.35;;;;;;;-0.24;90.44;95814.41;2078852;28;20205;-58
2022/01/08 01:48:53;;;;;;;6.00;2.35;;;;;;;-0.23;90.47;95808.38;2080118;28;20227;-58
2022/01/08 01:49:55;;;;;;;3.25;1.98;;;;;;;-0.28;90.82;95805.13;2080509;28;20379;-58
2022/01/08 01:50:56;;;;;;;9.20;2.42;;;;;;;-0.20;90.57;95804.84;2080486;28;20197;-58
2022/01/08 01:51:59;;;;;;;6.78;2.15;;;;;;;-0.26;90.94;95808.47;2080333;28;20195;-58
2022/01/08 01:53:01;;;;;;;4.50;2.22;;;;;;;-0.27;91.47;95801.69;2079775;28;20206;-57
2022/01/08 01:54:03;;;;;;;4.35;1.95;;;;;;;-0.31;91.27;95787.25;2080763;28;20266;-58
2022/01/08 01:55:06;;;;;;;2.67;1.92;;;;;;;-0.32;91.44;95811.31;2079947;28;20206;-58
2022/01/08 01:56:07;;;;;;;3.38;1.83;;;;;;;-0.23;91.61;95795.50;2080628;28;20731;-57
2022/01/08 01:57:13;;;;;;;3.47;2.30;;;;;;;-0.22;91.79;95804.94;2080118;28;20195;-58
2022/01/08 01:58:16;;;;;;;3.15;1.73;;;;;;;-0.23;91.97;95803.22;2079314;28;20190;-58
2022/01/08 01:59:17;;;;;;;6.13;2.63;;;;;;;-0.24;92.32;95806.69;2079498;28;20198;-57
2022/01/08 02:00:19;;;;;;;3.58;1.92;;;;;;;-0.25;92.08;95791.34;2079992;28;20203;-58
2022/01/08 02:01:20;;;;;;;4.93;2.42;;;;;;;-0.22;92.37;95799.78;2079939;28;20540;-58
2022/01/08 02:02:22;;;;;;;2.00;1.70;;;;;;;-0.22;92.52;95791.19;2080567;28;20203;-57
2022/01/08 02:03:23;;;;;;;4.53;2.33;;;;;;;-0.28;92.71;95800.00;2079655;28;20234;-58
2022/01/08 02:04:25;;;;;;;2.72;1.95;;;;;;;-0.30;93.20;95788.91;2079720;28;20337;-58
2022/01/08 02:05:27;;;;;;;8.00;2.42;;;;;;;-0.49;93.32;95770.81;2079128;28;20199;-57
2022/01/08 02:06:29;;;;;;;2.85;2.00;;;;;;;-0.24;93.16;95796.41;2079750;28;20324;-58
2022/01/08 02:07:30;;;;;;;2.83;2.22;;;;;;;-0.27;93.53;95793.13;2080350;28;20649;-57
2022/01/08 02:08:33;;;;;;;6.68;2.00;;;;;;;-0.44;93.59;95763.72;2079661;28;20616;-58
2022/01/08 02:09:37;;;;;;;4.63;2.22;;;;;;;-0.24;93.47;95788.69;2080227;28;20198;-57
2022/01/08 02:10:39;;;;;;;4.35;2.25;;;;;;;-0.35;94.34;95790.00;2080017;28;20232;-58
2022/01/08 02:11:59;;;;;;;4.00;2.60;;;;;;;-0.31;94.59;95784.69;2080148;28;20214;-58
2022/01/08 02:13:01;;;;;;;2.38;1.70;;;;;;;-0.30;94.60;95793.22;2079234;28;20204;-58
2022/01/08 02:14:05;;;;;;;4.20;2.08;;;;;;;-0.83;94.97;95710.34;2080091;28;20203;-57
2022/01/08 02:15:07;;;;;;;3.72;2.60;;;;;;;-0.42;95.72;95787.66;2079352;28;20198;-58
2022/01/08 02:16:16;;;;;;;5.75;2.70;;;;;;;-0.46;95.87;95780.94;2078995;28;20211;-57
2022/01/08 02:17:18;;;;;;;4.90;2.28;;;;;;;-0.42;96.17;95781.69;2079863;28;20534;-58
2022/01/08 02:18:22;;;;;;;3.95;2.55;;;;;;;-0.41;96.39;95783.38;2079409;28;20228;-58
2022/01/08 02:19:24;;;;;;;3.40;2.70;;;;;;;-0.46;96.68;95770.66;2078812;28;20199;-57
2022/01/08 02:20:25;;;;;;;3.25;2.63;;;;;;;-0.45;96.95;95766.34;2079333;28;20635;-58
2022/01/08 02:21:28;;;;;;;7.82;3.50;;;;;;;-0.40;97.18;95774.75;2079511;28;20214;-58
2022/01/08 02:22:29;;;;;;;5.25;2.50;;;;;;;-0.69;96.95;95727.81;2079928;28;20211;-58
2022/01/08 02:23:31;;;;;;;3.40;2.50;;;;;;;-0.41;97.24;95762.78;2076463;28;20242;-58
2022/01/08 02:24:32;;;;;;;4.53;2.53;;;;;;;-0.40;97.24;95767.84;2079407;28;20211;-58
2022/01/08 02:25:34;;;;;;;4.28;2.15;;;;;;;-0.49;97.14;95744.22;2080068;28;20689;-58
2022/01/08 02:26:35;;;;;;;4.85;2.60;;;;;;;-0.46;97.27;95751.81;2080065;28;20242;-57
2022/01/08 02:27:37;;;;;;;8.23;3.13;;;;;;;-0.45;97.46;95754.34;2080205;28;20533;-57
2022/01/08 02:28:40;;;;;;;7.68;2.60;;;;;;;-0.41;96.98;95748.19;2079776;28;20223;-58
2022/01/08 02:29:43;;;;;;;9.60;3.05;;;;;;;-0.61;97.12;95714.66;2080007;28;20361;-58
2022/01/08 02:30:44;;;;;;;4.43;2.78;;;;;;;-0.40;97.27;95752.41;2080021;28;20200;-58
2022/01/08 02:31:55;;;;;;;4.38;2.80;;;;;;;-0.43;97.54;95744.84;2080067;28;20194;-58
2022/01/08 02:32:56;;;;;;;8.02;2.33;;;;;;;-0.36;97.16;95753.13;2080112;28;20195;-58
2022/01/08 02:33:59;;;;;;;4.13;2.30;;;;;;;-0.38;97.32;95757.50;2079862;28;20230;-57
2022/01/08 02:35:00;;;;;;;2.65;2.22;;;;;;;-0.39;97.42;95750.69;2080158;28;20214;-57
2022/01/08 02:36:07;;;;;;;3.35;2.65;;;;;;;-0.36;97.21;95736.88;2080160;28;20203;-57
2022/01/08 02:37:09;;;;;;;3.38;2.30;;;;;;;-0.33;96.72;95740.16;2080024;28;20210;-58
2022/01/08 02:38:10;;;;;;;5.32;2.28;;;;;;;-0.33;97.15;95734.16;2079635;28;20216;-58
2022/01/08 02:39:12;;;;;;;4.75;2.85;;;;;;;-0.37;97.08;95720.59;2080203;28;20212;-58
2022/01/08 02:40:14;;;;;;;4.68;2.85;;;;;;;-0.30;96.97;95734.03;2079188;28;20199;-58
2022/01/08 02:41:15;;;;;;;2.53;2.30;;;;;;;-0.30;96.93;95728.91;2080328;28;20199;-57
2022/01/08 02:42:20;;;;;;;4.57;2.85;;;;;;;-0.31;97.20;95729.81;2080193;28;20198;-58
2022/01/08 02:43:23;;;;;;;6.93;2.45;;;;;;;-0.31;96.97;95748.66;2079546;28;20224;-58
2022/01/08 02:44:27;;;;;;;4.50;2.85;;;;;;;-0.31;97.13;95729.81;2079860;28;20291;-58
2022/01/08 02:45:29;;;;;;;6.68;2.58;;;;;;;-0.34;97.03;95723.03;2080097;28;20647;-58
2022/01/08 02:46:31;;;;;;;7.38;2.08;;;;;;;-0.28;97.15;95719.38;2080146;28;20203;-58
2022/01/08 02:47:32;;;;;;;6.45;2.50;;;;;;;-0.29;97.11;95739.16;2080512;28;20199;-58
2022/01/08 02:48:34;;;;;;;8.93;2.33;;;;;;;-0.50;97.18;95702.22;2079596;28;20222;-58
2022/01/08 02:49:36;;;;;;;10.45;3.47;;;;;;;-0.28;97.26;95719.38;2080346;28;20195;-58
2022/01/08 02:50:38;;;;;;;7.57;2.53;;;;;;;-0.31;97.44;95725.50;2080436;28;20814;-57
2022/01/08 02:51:39;;;;;;;9.38;2.80;;;;;;;-0.28;97.48;95715.06;2080156;28;20538;-57
2022/01/08 02:52:45;;;;;;;2.88;2.17;;;;;;;-0.29;97.35;95710.00;2080324;28;20199;-58
2022/01/08 02:53:47;;;;;;;5.85;2.53;;;;;;;-0.26;97.18;95717.59;2078856;28;20572;-58
2022/01/08 02:54:48;;;;;;;4.00;2.80;;;;;;;-0.30;97.47;95710.88;2080015;28;20221;-57
2022/01/08 02:55:50;;;;;;;4.88;2.30;;;;;;;-0.31;97.30;95707.50;2078992;28;20207;-58
2022/01/08 02:56:51;;;;;;;4.43;2.47;;;;;;;-0.31;97.51;95704.91;2080021;28;20201;-58
2022/01/08 02:57:53;;;;;;;6.55;2.35;;;;;;;-0.31;97.41;95686.91;2080345;28;20196;-58
2022/01/08 02:58:54;;;;;;;4.47;2.85;;;;;;;-0.30;97.50;95706.56;2079484;28;20224;-58
2022/01/08 02:59:56;;;;;;;4.07;2.00;;;;;;;-0.44;97.90;95683.97;2078890;28;20203;-58
2022/01/08 03:00:58;;;;;;;8.52;3.08;;;;;;;-0.30;97.84;95698.84;2079919;28;20238;-58
2022/01/08 03:02:00;;;;;;;4.97;2.60;;;;;;;-0.28;97.61;95701.38;2071374;28;20191;-58
2022/01/08 03:03:01;;;;;;;3.22;2.20;;;;;;;-0.36;97.90;95691.38;2070992;28;20269;-58
2022/01/08 03:04:05;;;;;;;3.72;2.60;;;;;;;-0.27;98.06;95703.88;2079562;28;20234;-58
2022/01/08 03:05:07;;;;;;;6.78;2.13;;;;;;;-0.36;98.74;95693.97;2080072;28;20226;-58
2022/01/08 03:06:09;;;;;;;4.63;2.17;;;;;;;-0.30;98.45;95701.44;2079862;28;20238;-58
2022/01/08 03:07:10;;;;;;;3.10;2.53;;;;;;;-0.32;98.60;95698.06;2080192;28;20212;-57
2022/01/08 03:08:12;;;;;;;7.38;2.65;;;;;;;-0.36;98.66;95687.97;2078309;28;20202;-58
2022/01/08 03:09:13;;;;;;;6.32;2.13;;;;;;;-0.36;98.97;95693.97;2080145;28;20204;-58
2022/01/08 03:10:17;;;;;;;4.07;2.50;;;;;;;-0.38;99.30;95705.22;2071407;28;20200;-58
2022/01/08 03:11:18;;;;;;;9.80;2.50;;;;;;;-0.36;99.56;95693.13;2071497;28;20200;-58
2022/01/08 03:12:20;;;;;;;3.00;2.05;;;;;;;-0.40;99.69;95695.81;2080191;28;20681;-58
2022/01/08 03:13:21;;;;;;;13.02;2.55;;;;;;;-0.50;100.00;95691.94;2079547;28;20230;-58
2022/01/08 03:14:23;;;;;;;3.30;2.20;;;;;;;-0.45;100.00;95709.75;2071183;28;20200;-58
2022/01/08 03:15:25;;;;;;;3.92;2.58;;;;;;;-0.49;100.00;95697.91;2071378;28;20841;-58
2022/01/08 03:16:26;;;;;;;3.80;2.45;;;;;;;-0.50;100.00;95699.66;2080095;28;20203;-58
2022/01/08 03:17:28;;;;;;;9.80;2.63;;;;;;;-0.57;100.00;95695.63;2080154;28;20201;-58
2022/01/08 03:18:29;;;;;;;6.97;2.85;;;;;;;-0.88;100.00;95655.69;2079770;28;20712;-58
2022/01/08 03:19:33;;;;;;;5.53;2.80;;;;;;;-0.57;100.00;95690.50;2079911;28;20197;-58
2022/01/08 03:20:43;;;;;;;5.20;2.70;;;;;;;-0.54;100.00;95695.53;2080205;28;20538;-58
2022/01/08 03:21:51;;;;;;;3.33;2.20;;;;;;;-0.59;100.00;95705.16;2079816;28;20192;-58
2022/01/08 03:23:00;;;;;;;3.72;2.67;;;;;;;-0.67;100.00;95689.19;2079026;28;20218;-58
2022/01/08 03:24:05;;;;;;;5.57;2.83;;;;;;;-0.86;100.00;95648.78;2076805;28;20856;-58
2022/01/08 03:25:08;;;;;;;6.00;2.53;;;;;;;-0.54;100.00;95692.13;2079928;28;20200;-58
2022/01/08 03:26:10;;;;;;;3.28;2.58;;;;;;;-0.56;100.00;95689.59;2080249;28;20195;-58
2022/01/08 03:27:11;;;;;;;4.57;2.97;;;;;;;-0.60;100.00;95691.47;2079196;28;20216;-58
2022/01/08 03:28:13;;;;;;;5.03;2.53;;;;;;;-0.67;100.00;95672.00;2078916;28;20196;-58
2022/01/08 03:29:14;;;;;;;3.95;2.65;;;;;;;-0.65;100.00;95698.53;2071377;28;20720;-58
2022/01/08 03:30:16;;;;;;;3.50;2.28;;;;;;;-0.69;100.00;95683.25;2071226;28;20551;-58
2022/01/08 03:31:18;;;;;;;4.25;2.78;;;;;;;-0.64;100.00;95687.34;2079160;28;20224;-58
2022/01/08 03:32:20;;;;;;;6.30;2.60;;;;;;;-0.65;100.00;95685.69;2078142;28;20208;-59
2022/01/08 03:33:21;;;;;;;3.50;2.55;;;;;;;-0.70;100.00;95674.72;2079769;28;20227;-58
2022/01/08 03:34:23;;;;;;;4.40;2.30;;;;;;;-0.63;100.00;95676.16;2079869;28;20199;-59
2022/01/08 03:35:24;;;;;;;3.45;2.38;;;;;;;-0.64;100.00;95684.75;2081194;28;20215;-58
2022/01/08 03:36:26;;;;;;;5.47;2.95;;;;;;;-0.72;100.00;95673.13;2081125;28;20202;-58
2022/01/08 03:37:28;;;;;;;2.30;2.08;;;;;;;-0.61;100.00;95679.50;2081563;28;20218;-59
2022/01/08 03:38:30;;;;;;;5.65;2.03;;;;;;;-0.65;100.00;95695.97;2080819;28;20229;-60
2022/01/08 03:39:32;;;;;;;4.35;2.55;;;;;;;-0.59;100.00;95674.28;2081769;28;20213;-58
2022/01/08 03:40:34;;;;;;;4.45;2.42;;;;;;;-0.61;100.00;95678.66;2080868;28;20238;-59
2022/01/08 03:41:36;;;;;;;4.10;2.25;;;;;;;-0.64;100.00;95678.78;2081249;28;20218;-58
2022/01/08 03:42:37;;;;;;;3.10;2.20;;;;;;;-0.68;100.00;95680.63;2081552;28;20203;-59
2022/01/08 03:43:38;;;;;;;5.65;2.42;;;;;;;-0.85;100.00;95662.44;2080870;28;20233;-59
2022/01/08 03:44:40;;;;;;;3.80;2.35;;;;;;;-0.64;100.00;95679.63;2072581;28;20736;-59
2022/01/08 03:45:43;;;;;;;4.25;2.15;;;;;;;-0.64;100.00;95673.66;2072979;28;20210;-59
2022/01/08 03:46:44;;;;;;;4.72;2.35;;;;;;;-0.60;100.00;95670.06;2081342;28;20195;-60
2022/01/08 03:50:03;;;;;;;3.10;2.20;;;;;;;-0.60;100.00;95686.31;2081457;28;20208;-59
2022/01/08 03:51:07;;;;;;;3.90;2.42;;;;;;;-0.56;100.00;95676.75;2072040;28;20205;-59
2022/01/08 03:52:09;;;;;;;3.42;2.50;;;;;;;-0.58;100.00;95670.00;2072955;28;20214;-59
2022/01/08 03:53:10;;;;;;;3.05;2.20;;;;;;;-0.69;100.00;95655.81;2080930;28;20219;-59
2022/01/08 03:54:13;;;;;;;4.05;2.22;;;;;;;-0.59;100.00;95671.72;2081188;28;20216;-58
2022/01/08 03:55:14;;;;;;;2.95;2.08;;;;;;;-0.68;100.00;95657.50;2081560;28;20303;-59
2022/01/08 03:56:16;;;;;;;3.25;1.92;;;;;;;-0.60;100.00;95665.75;2081298;28;20203;-59
2022/01/08 03:57:17;;;;;;;3.10;1.98;;;;;;;-0.51;100.00;95679.13;2081162;28;20290;-58
2022/01/08 03:58:19;;;;;;;1.95;1.63;;;;;;;-0.51;100.00;95679.13;2080599;28;20634;-58
2022/01/08 03:59:20;;;;;;;4.15;1.77;;;;;;;-0.53;100.00;95679.22;2081264;28;20203;-58
2022/01/08 04:00:22;;;;;;;2.58;1.80;;;;;;;-0.49;100.00;95685.03;2081658;28;20208;-58
2022/01/08 04:01:23;;;;;;;2.88;1.58;;;;;;;-0.45;100.00;95678.88;2081141;28;20210;-58
2022/01/08 04:02:25;;;;;;;4.13;1.88;;;;;;;-0.43;100.00;95677.94;2081335;28;20206;-58
2022/01/08 04:03:27;;;;;;;2.05;1.42;;;;;;;-0.41;100.00;95678.72;2080856;28;20223;-58
2022/01/08 04:04:28;;;;;;;1.77;1.10;;;;;;;-0.36;100.00;95685.41;2080155;28;20229;-58
2022/01/08 04:05:30;;;;;;;1.27;1.00;;;;;;;-0.38;100.00;95688.03;2081168;28;20546;-58
2022/01/08 04:06:31;;;;;;;2.75;1.38;;;;;;;-0.33;100.00;95686.13;2081229;28;20198;-58
2022/01/08 04:07:33;;;;;;;1.77;1.50;;;;;;;-0.37;100.00;95691.44;2081159;28;20247;-60
2022/01/08 04:08:35;;;;;;;1.77;1.50;;;;;;;-0.36;100.00;95685.41;2080799;28;20222;-58
2022/01/08 04:09:36;;;;;;;1.55;1.30;;;;;;;-0.40;100.00;95682.13;2080181;28;20207;-58
2022/01/08 04:10:38;;;;;;;1.50;1.13;;;;;;;-0.34;100.00;95681.88;2081187;28;20207;-57
2022/01/08 04:11:40;;;;;;;1.88;1.45;;;;;;;-0.50;100.00;95660.22;2079876;28;20218;-58
2022/01/08 04:12:53;;;;;;;1.98;1.50;;;;;;;-0.36;100.00;95688.81;2081582;28;20196;-58
2022/01/08 04:13:56;;;;;;;3.17;1.50;;;;;;;-0.32;100.00;95686.97;2080596;28;20599;-57
2022/01/08 04:15:06;;;;;;;2.45;1.05;;;;;;;-0.85;100.00;95606.72;2072452;28;20707;-57
2022/01/08 04:16:15;;;;;;;2.42;1.30;;;;;;;-0.33;100.00;95691.28;2073918;28;20646;-58
2022/01/08 04:17:17;;;;;;;2.10;1.10;;;;;;;-0.34;100.00;95694.72;2079633;28;20208;-57
2022/01/08 04:18:19;;;;;;;1.55;1.30;;;;;;;-0.31;100.00;95697.19;2080899;28;20608;-58
2022/01/08 04:19:20;;;;;;;1.38;1.15;;;;;;;-0.33;100.00;95696.41;2081202;28;20285;-57
2022/01/08 04:20:22;;;;;;;3.33;1.48;;;;;;;-0.32;100.00;95692.09;2080640;28;20884;-57
2022/01/08 04:22:35;;;;;;;1.20;0.98;;;;;;;-0.28;100.00;95698.81;2080852;28;20199;-57
2022/01/08 04:23:37;;;;;;;2.15;1.13;;;;;;;-0.29;100.00;95692.81;2070751;28;20227;-58
2022/01/08 04:24:40;;;;;;;1.70;1.33;;;;;;;-0.29;100.00;95700.53;2072387;28;20212;-57
2022/01/08 04:25:43;;;;;;;1.73;1.30;;;;;;;-0.34;100.00;95696.47;2079596;28;20655;-58
2022/01/08 04:26:44;;;;;;;1.25;1.00;;;;;;;-0.40;100.00;95692.41;2080345;28;20222;-57
2022/01/08 04:27:46;;;;;;;1.20;0.80;;;;;;;-0.34;100.00;95712.75;2071803;28;20215;-57
2022/01/08 04:28:49;;;;;;;3.28;0.80;;;;;;;-0.33;100.00;95713.56;2071835;28;20235;-57
2022/01/08 04:29:51;;;;;;;2.30;0.98;;;;;;;-0.36;100.00;95708.56;2080126;28;20191;-58
2022/01/08 04:30:52;;;;;;;0.80;0.70;;;;;;;-0.38;100.00;95705.22;2080801;28;20203;-58
2022/01/08 04:31:54;;;;;;;5.03;0.90;;;;;;;-0.36;100.00;95716.28;2080790;28;20619;-58
2022/01/08 04:32:55;;;;;;;1.60;1.10;;;;;;;-0.41;100.00;95721.63;2080010;28;20204;-58
2022/01/08 04:33:57;;;;;;;2.15;1.00;;;;;;;-0.69;100.00;95685.84;2080312;28;20217;-57
2022/01/08 04:34:59;;;;;;;1.58;0.85;;;;;;;-0.65;100.00;95692.53;2071819;28;20206;-57
2022/01/08 04:36:00;;;;;;;0.80;0.80;;;;;;;-0.54;100.00;95723.00;2072161;28;20199;-57
2022/01/08 04:37:02;;;;;;;0.85;0.77;;;;;;;-0.53;100.00;95732.38;2080868;28;20553;-57
2022/01/08 04:38:03;;;;;;;1.98;1.10;;;;;;;-0.69;100.00;95712.38;2079157;28;20197;-57
2022/01/08 04:39:05;;;;;;;1.00;0.80;;;;;;;-0.58;100.00;95739.44;2080749;28;20195;-57
2022/01/08 04:40:07;;;;;;;1.63;0.75;;;;;;;-0.64;100.00;95728.47;2080674;28;20207;-57
2022/01/08 04:41:09;;;;;;;1.00;0.80;;;;;;;-0.63;100.00;95740.47;2080676;28;20633;-56
2022/01/08 04:42:10;;;;;;;1.15;0.75;;;;;;;-0.64;100.00;95737.94;2080869;28;20638;-56
2022/01/08 04:43:12;;;;;;;1.00;0.80;;;;;;;-0.72;100.00;95734.84;2080281;28;20203;-57
2022/01/08 04:44:14;;;;;;;2.67;1.00;;;;;;;-0.76;100.00;95736.66;2080931;28;20199;-57
2022/01/08 04:45:15;;;;;;;3.47;1.83;;;;;;;-0.76;100.00;95739.25;2080747;28;20708;-57
2022/01/08 04:46:17;;;;;;;1.15;1.00;;;;;;;-0.85;100.00;95731.88;2080482;28;20676;-57
2022/01/08 04:47:18;;;;;;;1.50;1.05;;;;;;;-0.79;100.00;95744.50;2072101;28;20204;-57
2022/01/08 04:48:20;;;;;;;1.33;0.70;;;;;;;-0.81;100.00;95746.28;2071726;28;20240;-57
2022/01/08 04:49:24;;;;;;;3.22;0.88;;;;;;;-0.83;100.00;95743.75;2080838;28;20527;-57
2022/01/08 04:50:27;;;;;;;1.30;0.68;;;;;;;-1.35;100.00;95671.19;2080906;28;20222;-57
2022/01/08 04:51:28;;;;;;;1.58;0.93;;;;;;;-0.81;100.00;95749.69;2081015;28;20207;-57
2022/01/08 04:52:30;;;;;;;2.03;0.88;;;;;;;-0.92;100.00;95741.56;2080763;28;20204;-57
2022/01/08 04:53:32;;;;;;;1.98;0.93;;;;;;;-0.87;100.00;95749.09;2080163;28;20222;-57
2022/01/08 04:54:33;;;;;;;1.35;0.73;;;;;;;-0.88;100.00;95753.41;2080723;28;20210;-57
2022/01/08 04:55:35;;;;;;;5.53;1.10;;;;;;;-0.87;100.00;95756.81;2080650;28;20591;-57
2022/01/08 04:56:36;;;;;;;2.35;1.02;;;;;;;-0.95;100.00;95744.22;2080969;28;20251;-57
2022/01/08 04:57:38;;;;;;;1.45;0.80;;;;;;;-0.88;100.00;95763.69;2080671;28;20210;-57
2022/01/08 04:58:40;;;;;;;1.48;1.10;;;;;;;-0.87;100.00;95760.19;2080459;28;20224;-57
2022/01/08 04:59:41;;;;;;;1.80;1.10;;;;;;;-0.80;100.00;95769.38;2081029;28;20195;-57
2022/01/08 05:00:43;;;;;;;1.95;1.20;;;;;;;-1.05;100.00;95732.63;2080681;28;20209;-56
2022/01/08 05:01:45;;;;;;;0.93;0.80;;;;;;;-0.85;100.00;95775.56;2080128;28;20251;-57
2022/01/08 05:02:47;;;;;;;1.50;0.90;;;;;;;-0.82;100.00;95772.91;2080700;28;20191;-56
2022/01/08 05:03:49;;;;;;;2.15;1.05;;;;;;;-0.83;100.00;95774.63;2079236;28;20223;-57
2022/01/08 05:04:50;;;;;;;1.75;1.08;;;;;;;-0.78;100.00;95782.19;2080977;28;20204;-58
2022/01/08 05:05:52;;;;;;;1.10;0.90;;;;;;;-0.80;100.00;95782.22;2080252;28;20245;-56
2022/01/08 05:06:54;;;;;;;1.45;0.80;;;;;;;-0.78;100.00;95784.75;2080680;28;20576;-57
2022/01/08 05:07:56;;;;;;;1.45;0.80;;;;;;;-0.82;100.00;95776.31;2080726;28;20777;-56
2022/01/08 05:08:58;;;;;;;1.60;0.70;;;;;;;-0.78;100.00;95791.59;2079438;28;20224;-56
2022/01/08 05:09:59;;;;;;;4.20;0.90;;;;;;;-0.82;100.00;95786.59;2080893;28;20334;-56
2022/01/08 05:11:01;;;;;;;0.70;0.60;;;;;;;-0.79;100.00;95793.34;2079574;28;20218;-56
2022/01/08 05:12:03;;;;;;;0.70;0.50;;;;;;;-1.01;100.00;95747.03;2080722;28;20208;-56
2022/01/08 05:13:05;;;;;;;1.20;1.02;;;;;;;-0.68;100.00;95805.81;2080277;28;20844;-56